createdAt,value
2023-03-31T00:00:19.744Z,98918.06
2023-03-31T00:00:51.154Z,98931.88
2023-03-31T00:01:22.619Z,98925.13
2023-03-31T00:01:54.022Z,98916.47
2023-03-31T00:02:25.521Z,98917.25
2023-03-31T00:02:57.061Z,98907.97
2023-03-31T00:03:28.794Z,98911.31
2023-03-31T00:04:00.548Z,98911.00
2023-03-31T00:04:32.312Z,98910.69
2023-03-31T00:05:04.066Z,98907.97
2023-03-31T00:05:35.642Z,98913.09
2023-03-31T00:06:07.386Z,98912.00
2023-03-31T00:06:39.066Z,98909.88
2023-03-31T00:07:10.481Z,98903.63
2023-03-31T00:07:41.936Z,98904.44
2023-03-31T00:08:13.367Z,98903.31
2023-03-31T00:08:44.863Z,98900.28
2023-03-31T00:09:16.324Z,98907.16
2023-03-31T00:09:47.750Z,98904.94
2023-03-31T00:10:19.238Z,98898.97
2023-03-31T00:10:50.673Z,98904.13
2023-03-31T00:11:22.176Z,98894.66
2023-03-31T00:11:53.661Z,98894.66
2023-03-31T00:12:25.118Z,98889.50
2023-03-31T00:12:56.524Z,98887.28
2023-03-31T00:13:28.052Z,98888.09
2023-03-31T00:13:59.551Z,98888.41
2023-03-31T00:14:31.032Z,98888.72
2023-03-31T00:15:05.228Z,98885.97
2023-03-31T00:15:36.680Z,98884.88
2023-03-31T00:16:08.354Z,98897.38
2023-03-31T00:16:39.992Z,98894.66
2023-03-31T00:17:12.989Z,98891.94
2023-03-31T00:17:44.509Z,98896.75
2023-03-31T00:18:15.909Z,98894.66
2023-03-31T00:18:47.777Z,98884.56
2023-03-31T00:19:19.459Z,98891.13
2023-03-31T00:19:50.910Z,98889.19
2023-03-31T00:20:22.334Z,98882.63
2023-03-31T00:20:53.767Z,98888.09
2023-03-31T00:21:25.606Z,98884.56
2023-03-31T00:21:57.289Z,98876.06
2023-03-31T00:22:28.754Z,98880.53
2023-03-31T00:23:00.270Z,98883.25
2023-03-31T00:23:31.725Z,98886.47
2023-03-31T00:24:03.336Z,98874.75
2023-03-31T00:24:34.859Z,98872.03
2023-03-31T00:25:06.275Z,98873.97
2023-03-31T00:25:37.726Z,98870.91
2023-03-31T00:26:09.098Z,98872.84
2023-03-31T00:26:40.553Z,98869.81
2023-03-31T00:27:11.968Z,98860.34
2023-03-31T00:27:44.868Z,98872.84
2023-03-31T00:28:16.304Z,98870.13
2023-03-31T00:28:47.852Z,98870.13
2023-03-31T00:29:19.240Z,98866.59
2023-03-31T00:29:50.710Z,98861.94
2023-03-31T00:30:22.208Z,98866.28
2023-03-31T00:30:53.671Z,98861.63
2023-03-31T00:31:25.136Z,98860.34
2023-03-31T00:31:56.638Z,98860.00
2023-03-31T00:32:28.152Z,98860.00
2023-03-31T00:32:59.620Z,98862.75
2023-03-31T00:33:31.028Z,98861.94
2023-03-31T00:34:02.536Z,98862.44
2023-03-31T00:34:36.614Z,98853.44
2023-03-31T00:35:08.067Z,98856.97
2023-03-31T00:35:39.555Z,98856.97
2023-03-31T00:36:13.883Z,98855.06
2023-03-31T00:36:45.342Z,98855.38
2023-03-31T00:37:16.807Z,98856.97
2023-03-31T00:37:48.324Z,98856.16
2023-03-31T00:38:19.746Z,98846.56
2023-03-31T00:38:51.263Z,98850.41
2023-03-31T00:39:22.691Z,98846.38
2023-03-31T00:39:54.147Z,98848.78
2023-03-31T00:40:25.674Z,98849.59
2023-03-31T00:40:57.127Z,98850.72
2023-03-31T00:41:28.584Z,98851.19
2023-03-31T00:42:00.001Z,98849.28
2023-03-31T00:42:31.461Z,98843.81
2023-03-31T00:43:02.918Z,98847.69
2023-03-31T00:43:34.368Z,98839.31
2023-03-31T00:44:05.987Z,98849.44
2023-03-31T00:44:37.491Z,98837.72
2023-03-31T00:45:08.959Z,98832.75
2023-03-31T00:45:40.365Z,98827.31
2023-03-31T00:46:11.929Z,98833.25
2023-03-31T00:46:43.409Z,98830.81
2023-03-31T00:47:14.866Z,98832.44
2023-03-31T00:47:46.263Z,98825.88
2023-03-31T00:48:17.819Z,98819.28
2023-03-31T00:48:49.283Z,98817.69
2023-03-31T00:49:23.324Z,98817.69
2023-03-31T00:49:54.802Z,98821.53
2023-03-31T00:50:26.229Z,98824.25
2023-03-31T00:50:57.660Z,98816.88
2023-03-31T00:51:29.073Z,98813.84
2023-03-31T00:52:00.571Z,98815.75
2023-03-31T00:52:32.020Z,98822.81
2023-03-31T00:53:03.615Z,98818.31
2023-03-31T00:53:35.070Z,98817.03
2023-03-31T00:54:06.645Z,98816.72
2023-03-31T00:54:38.123Z,98815.28
2023-03-31T00:55:09.513Z,98812.88
2023-03-31T00:55:40.942Z,98809.50
2023-03-31T00:56:12.516Z,98813.03
2023-03-31T00:56:43.998Z,98804.06
2023-03-31T00:57:18.520Z,98806.78
2023-03-31T00:57:50.003Z,98806.78
2023-03-31T00:58:21.516Z,98801.97
2023-03-31T00:58:53.118Z,98805.50
2023-03-31T00:59:24.534Z,98803.56
2023-03-31T00:59:56.035Z,98803.56
2023-03-31T01:00:27.497Z,98799.72
2023-03-31T01:00:58.941Z,98803.56
2023-03-31T01:01:30.489Z,98798.13
2023-03-31T01:02:02.045Z,98802.75
2023-03-31T01:02:33.548Z,98806.28
2023-03-31T01:03:05.208Z,98803.72
2023-03-31T01:03:36.817Z,98812.22
2023-03-31T01:04:08.403Z,98806.28
2023-03-31T01:04:39.959Z,98813.03
2023-03-31T01:05:11.390Z,98809.19
2023-03-31T01:05:42.865Z,98802.94
2023-03-31T01:06:14.311Z,98807.59
2023-03-31T01:06:45.770Z,98802.63
2023-03-31T01:07:17.249Z,98806.13
2023-03-31T01:07:48.785Z,98797.16
2023-03-31T01:08:20.409Z,98806.94
2023-03-31T01:08:51.880Z,98802.28
2023-03-31T01:09:23.386Z,98803.91
2023-03-31T01:09:54.867Z,98799.88
2023-03-31T01:10:26.342Z,98808.88
2023-03-31T01:10:57.785Z,98801.50
2023-03-31T01:11:29.236Z,98802.28
2023-03-31T01:12:00.694Z,98800.69
2023-03-31T01:12:32.142Z,98809.66
2023-03-31T01:13:06.810Z,98803.41
2023-03-31T01:13:38.401Z,98798.78
2023-03-31T01:14:09.960Z,98804.06
2023-03-31T01:14:41.454Z,98803.72
2023-03-31T01:15:12.870Z,98803.72
2023-03-31T01:15:44.344Z,98802.13
2023-03-31T01:16:15.818Z,98797.47
2023-03-31T01:16:47.443Z,98797.47
2023-03-31T01:17:19.153Z,98788.81
2023-03-31T01:17:50.985Z,98795.56
2023-03-31T01:18:22.820Z,98803.72
2023-03-31T01:18:54.304Z,98791.22
2023-03-31T01:19:25.755Z,98791.22
2023-03-31T01:19:57.242Z,98796.34
2023-03-31T01:20:28.618Z,98785.44
2023-03-31T01:21:00.099Z,98783.53
2023-03-31T01:21:31.558Z,98779.19
2023-03-31T01:22:02.971Z,98779.50
2023-03-31T01:22:34.421Z,98785.78
2023-03-31T01:23:05.851Z,98785.44
2023-03-31T01:23:37.277Z,98791.72
2023-03-31T01:24:08.866Z,98788.97
2023-03-31T01:24:40.292Z,98785.94
2023-03-31T01:25:11.830Z,98789.78
2023-03-31T01:25:43.217Z,98785.78
2023-03-31T01:26:14.695Z,98788.19
2023-03-31T01:26:46.101Z,98785.44
2023-03-31T01:27:17.537Z,98786.88
2023-03-31T01:27:48.961Z,98792.81
2023-03-31T01:28:20.569Z,98792.03
2023-03-31T01:28:52.031Z,98778.41
2023-03-31T01:29:23.493Z,98783.53
2023-03-31T01:29:54.946Z,98781.94
2023-03-31T01:30:26.431Z,98779.50
2023-03-31T01:30:57.969Z,98783.38
2023-03-31T01:31:29.502Z,98781.94
2023-03-31T01:32:00.940Z,98784.47
2023-03-31T01:32:32.400Z,98785.28
2023-03-31T01:33:03.903Z,98781.13
2023-03-31T01:33:35.319Z,98779.50
2023-03-31T01:34:06.756Z,98778.41
2023-03-31T01:34:38.313Z,98777.09
2023-03-31T01:35:09.795Z,98776.47
2023-03-31T01:35:41.357Z,98774.06
2023-03-31T01:36:12.861Z,98784.97
2023-03-31T01:36:44.508Z,98768.59
2023-03-31T01:37:15.977Z,98766.69
2023-03-31T01:37:47.405Z,98759.78
2023-03-31T01:38:18.815Z,98771.03
2023-03-31T01:38:53.306Z,98754.34
2023-03-31T01:39:24.745Z,98757.72
2023-03-31T01:39:56.250Z,98751.13
2023-03-31T01:40:27.706Z,98750.81
2023-03-31T01:40:59.131Z,98751.13
2023-03-31T01:41:30.639Z,98746.81
2023-03-31T01:42:02.096Z,98752.25
2023-03-31T01:42:33.689Z,98747.59
2023-03-31T01:43:05.109Z,98749.53
2023-03-31T01:43:36.476Z,98751.13
2023-03-31T01:44:07.874Z,98755.28
2023-03-31T01:44:39.275Z,98750.66
2023-03-31T01:45:13.300Z,98746.00
2023-03-31T01:45:44.767Z,98747.59
2023-03-31T01:46:16.235Z,98741.97
2023-03-31T01:46:47.786Z,98739.25
2023-03-31T01:47:21.937Z,98743.59
2023-03-31T01:47:53.352Z,98736.22
2023-03-31T01:48:24.844Z,98740.88
2023-03-31T01:48:56.285Z,98728.03
2023-03-31T01:49:27.696Z,98733.16
2023-03-31T01:49:59.078Z,98731.56
2023-03-31T01:50:30.571Z,98733.16
2023-03-31T01:51:01.987Z,98731.25
2023-03-31T01:51:33.377Z,98727.56
2023-03-31T01:52:04.906Z,98723.38
2023-03-31T01:52:36.397Z,98718.56
2023-03-31T01:53:07.762Z,98714.72
2023-03-31T01:53:39.228Z,98705.75
2023-03-31T01:54:10.655Z,98707.66
2023-03-31T01:54:42.145Z,98710.38
2023-03-31T01:55:16.580Z,98706.53
2023-03-31T01:55:48.093Z,98710.88
2023-03-31T01:56:19.640Z,98716.81
2023-03-31T01:56:53.991Z,98714.09
2023-03-31T01:57:25.626Z,98708.16
2023-03-31T01:57:57.154Z,98716.31
2023-03-31T01:58:31.131Z,98716.00
2023-03-31T01:59:02.545Z,98708.94
2023-03-31T01:59:33.970Z,98712.00
2023-03-31T02:00:05.364Z,98709.75
2023-03-31T02:00:36.848Z,98710.56
2023-03-31T02:01:08.358Z,98711.34
2023-03-31T02:01:39.861Z,98707.50
2023-03-31T02:02:11.619Z,98702.38
2023-03-31T02:02:43.255Z,98699.66
2023-03-31T02:03:14.832Z,98703.50
2023-03-31T02:03:46.467Z,98706.22
2023-03-31T02:04:17.938Z,98699.97
2023-03-31T02:04:49.350Z,98696.94
2023-03-31T02:05:20.763Z,98698.03
2023-03-31T02:05:52.192Z,98698.03
2023-03-31T02:06:23.866Z,98689.06
2023-03-31T02:06:55.236Z,98692.91
2023-03-31T02:07:26.683Z,98688.25
2023-03-31T02:07:58.074Z,98689.38
2023-03-31T02:08:29.542Z,98687.13
2023-03-31T02:09:00.969Z,98682.16
2023-03-31T02:09:32.382Z,98681.84
2023-03-31T02:10:03.793Z,98675.91
2023-03-31T02:10:35.264Z,98681.38
2023-03-31T02:11:06.715Z,98675.44
2023-03-31T02:11:38.301Z,98678.66
2023-03-31T02:12:09.733Z,98675.91
2023-03-31T02:12:41.199Z,98674.00
2023-03-31T02:13:12.633Z,98678.97
2023-03-31T02:13:44.022Z,98670.47
2023-03-31T02:14:15.449Z,98679.75
2023-03-31T02:14:46.930Z,98675.13
2023-03-31T02:15:21.215Z,98679.44
2023-03-31T02:15:52.651Z,98664.53
2023-03-31T02:16:24.122Z,98663.41
2023-03-31T02:16:58.541Z,98661.00
2023-03-31T02:17:30.182Z,98667.25
2023-03-31T02:18:01.838Z,98661.00
2023-03-31T02:18:33.318Z,98670.78
2023-03-31T02:19:04.762Z,98660.34
2023-03-31T02:19:36.165Z,98665.81
2023-03-31T02:20:07.680Z,98663.41
2023-03-31T02:20:39.174Z,98658.28
2023-03-31T02:21:10.641Z,98662.59
2023-03-31T02:21:42.058Z,98663.41
2023-03-31T02:22:13.554Z,98649.78
2023-03-31T02:22:45.010Z,98663.88
2023-03-31T02:23:16.458Z,98654.59
2023-03-31T02:23:47.926Z,98652.66
2023-03-31T02:24:19.420Z,98655.38
2023-03-31T02:24:50.935Z,98652.97
2023-03-31T02:25:22.403Z,98640.78
2023-03-31T02:25:53.894Z,98649.44
2023-03-31T02:26:25.347Z,98642.41
2023-03-31T02:26:56.859Z,98638.56
2023-03-31T02:27:28.544Z,98640.00
2023-03-31T02:28:00.043Z,98640.78
2023-03-31T02:28:31.513Z,98641.13
2023-03-31T02:29:03.006Z,98641.13
2023-03-31T02:29:34.378Z,98629.41
2023-03-31T02:30:05.788Z,98634.53
2023-03-31T02:30:37.225Z,98640.78
2023-03-31T02:31:08.704Z,98642.41
2023-03-31T02:31:40.218Z,98643.84
2023-03-31T02:32:11.726Z,98642.41
2023-03-31T02:32:43.225Z,98638.56
2023-03-31T02:33:17.435Z,98634.53
2023-03-31T02:33:48.860Z,98634.53
2023-03-31T02:34:20.428Z,98638.38
2023-03-31T02:34:51.908Z,98633.75
2023-03-31T02:35:23.427Z,98636.47
2023-03-31T02:35:54.927Z,98630.22
2023-03-31T02:36:26.457Z,98623.47
2023-03-31T02:36:57.905Z,98625.09
2023-03-31T02:37:29.371Z,98625.88
2023-03-31T02:38:00.926Z,98630.84
2023-03-31T02:38:32.427Z,98623.81
2023-03-31T02:39:03.887Z,98618.84
2023-03-31T02:39:35.315Z,98624.75
2023-03-31T02:40:06.782Z,98625.09
2023-03-31T02:40:38.263Z,98621.22
2023-03-31T02:41:09.792Z,98620.13
2023-03-31T02:41:41.230Z,98617.38
2023-03-31T02:42:12.695Z,98617.38
2023-03-31T02:42:44.140Z,98622.84
2023-03-31T02:43:15.639Z,98624.44
2023-03-31T02:43:47.047Z,98620.13
2023-03-31T02:44:18.508Z,98624.75
2023-03-31T02:44:49.960Z,98622.03
2023-03-31T02:45:21.478Z,98630.22
2023-03-31T02:45:52.984Z,98624.44
2023-03-31T02:46:24.530Z,98616.25
2023-03-31T02:46:55.943Z,98616.59
2023-03-31T02:47:27.400Z,98616.59
2023-03-31T02:47:58.904Z,98613.84
2023-03-31T02:48:30.357Z,98615.78
2023-03-31T02:49:01.786Z,98606.81
2023-03-31T02:49:33.344Z,98611.94
2023-03-31T02:50:04.781Z,98608.88
2023-03-31T02:50:38.907Z,98602.47
2023-03-31T02:51:11.620Z,98613.38
2023-03-31T02:51:43.052Z,98608.41
2023-03-31T02:52:14.501Z,98602.63
2023-03-31T02:52:45.933Z,98612.25
2023-03-31T02:53:17.577Z,98605.53
2023-03-31T02:53:51.636Z,98605.53
2023-03-31T02:54:23.095Z,98603.28
2023-03-31T02:54:54.553Z,98598.63
2023-03-31T02:55:25.944Z,98598.16
2023-03-31T02:55:57.618Z,98603.59
2023-03-31T02:56:29.081Z,98593.16
2023-03-31T02:57:00.616Z,98588.03
2023-03-31T02:57:32.078Z,98598.63
2023-03-31T02:58:03.533Z,98593.16
2023-03-31T02:58:34.966Z,98587.41
2023-03-31T02:59:06.359Z,98590.44
2023-03-31T02:59:37.828Z,98588.84
2023-03-31T03:00:09.290Z,98592.03
2023-03-31T03:00:40.783Z,98590.13
2023-03-31T03:01:12.329Z,98583.06
2023-03-31T03:01:43.902Z,98583.06
2023-03-31T03:02:15.448Z,98586.59
2023-03-31T03:02:47.123Z,98588.19
2023-03-31T03:03:18.746Z,98580.50
2023-03-31T03:03:50.185Z,98577.78
2023-03-31T03:04:21.638Z,98572.31
2023-03-31T03:04:53.111Z,98569.59
2023-03-31T03:05:24.574Z,98577.78
2023-03-31T03:05:56.119Z,98575.03
2023-03-31T03:06:27.544Z,98575.03
2023-03-31T03:06:59.004Z,98569.59
2023-03-31T03:07:30.403Z,98568.63
2023-03-31T03:08:01.864Z,98564.00
2023-03-31T03:08:33.339Z,98562.06
2023-03-31T03:09:04.749Z,98550.34
2023-03-31T03:09:36.173Z,98555.81
2023-03-31T03:10:07.622Z,98554.69
2023-03-31T03:10:39.019Z,98553.56
2023-03-31T03:11:10.447Z,98547.63
2023-03-31T03:11:44.471Z,98554.69
2023-03-31T03:12:15.899Z,98546.81
2023-03-31T03:12:47.462Z,98546.81
2023-03-31T03:13:18.918Z,98540.91
2023-03-31T03:13:50.400Z,98541.69
2023-03-31T03:14:21.811Z,98541.38
2023-03-31T03:14:53.256Z,98546.81
2023-03-31T03:15:24.645Z,98546.81
2023-03-31T03:15:56.055Z,98541.06
2023-03-31T03:16:27.625Z,98533.19
2023-03-31T03:16:59.229Z,98531.59
2023-03-31T03:17:30.822Z,98529.69
2023-03-31T03:18:02.355Z,98521.81
2023-03-31T03:18:33.843Z,98527.28
2023-03-31T03:19:05.283Z,98529.19
2023-03-31T03:19:36.718Z,98519.56
2023-03-31T03:20:08.164Z,98515.25
2023-03-31T03:20:39.578Z,98518.78
2023-03-31T03:21:11.019Z,98518.44
2023-03-31T03:21:42.444Z,98511.06
2023-03-31T03:22:13.888Z,98504.81
2023-03-31T03:22:45.323Z,98511.38
2023-03-31T03:23:16.825Z,98505.13
2023-03-31T03:23:48.309Z,98507.06
2023-03-31T03:24:19.790Z,98501.94
2023-03-31T03:24:51.229Z,98500.50
2023-03-31T03:25:22.666Z,98495.84
2023-03-31T03:25:54.142Z,98501.28
2023-03-31T03:26:25.601Z,98494.25
2023-03-31T03:26:57.157Z,98498.25
2023-03-31T03:27:28.637Z,98500.97
2023-03-31T03:28:00.115Z,98494.72
2023-03-31T03:28:31.605Z,98496.63
2023-03-31T03:29:03.171Z,98497.44
2023-03-31T03:29:34.664Z,98496.63
2023-03-31T03:30:06.079Z,98498.88
2023-03-31T03:30:37.563Z,98498.88
2023-03-31T03:31:09.100Z,98494.72
2023-03-31T03:31:40.564Z,98501.28
2023-03-31T03:32:12.059Z,98495.03
2023-03-31T03:32:43.581Z,98503.69
2023-03-31T03:33:15.894Z,98509.13
2023-03-31T03:33:47.469Z,98493.91
2023-03-31T03:34:18.895Z,98492.00
2023-03-31T03:34:50.361Z,98500.50
2023-03-31T03:35:21.863Z,98495.50
2023-03-31T03:35:53.342Z,98494.72
2023-03-31T03:36:24.910Z,98501.63
2023-03-31T03:36:56.376Z,98499.84
2023-03-31T03:37:27.862Z,98496.16
2023-03-31T03:37:59.254Z,98485.72
2023-03-31T03:38:30.730Z,98484.28
2023-03-31T03:39:02.191Z,98490.38
2023-03-31T03:39:33.668Z,98475.94
2023-03-31T03:40:05.083Z,98477.06
2023-03-31T03:40:36.489Z,98470.50
2023-03-31T03:41:07.949Z,98474.03
2023-03-31T03:41:39.441Z,98481.88
2023-03-31T03:42:10.848Z,98479.00
2023-03-31T03:42:42.415Z,98467.63
2023-03-31T03:43:13.857Z,98479.00
2023-03-31T03:43:45.327Z,98478.69
2023-03-31T03:44:16.764Z,98474.81
2023-03-31T03:44:51.126Z,98470.19
2023-03-31T03:45:22.515Z,98467.78
2023-03-31T03:45:53.980Z,98471.63
2023-03-31T03:46:25.451Z,98458.47
2023-03-31T03:46:56.978Z,98469.22
2023-03-31T03:47:28.619Z,98454.47
2023-03-31T03:48:00.100Z,98459.94
2023-03-31T03:48:31.605Z,98447.09
2023-03-31T03:49:02.958Z,98447.41
2023-03-31T03:49:34.466Z,98445.16
2023-03-31T03:50:05.950Z,98447.09
2023-03-31T03:50:37.420Z,98451.91
2023-03-31T03:51:08.809Z,98441.31
2023-03-31T03:51:40.353Z,98447.09
2023-03-31T03:52:11.823Z,98444.03
2023-03-31T03:52:43.280Z,98442.44
2023-03-31T03:53:14.730Z,98444.38
2023-03-31T03:53:50.570Z,98444.38
2023-03-31T03:54:21.978Z,98448.69
2023-03-31T03:54:53.377Z,98442.91
2023-03-31T03:55:24.880Z,98445.97
2023-03-31T03:55:56.340Z,98439.38
2023-03-31T03:56:27.749Z,98439.06
2023-03-31T03:56:59.239Z,98438.59
2023-03-31T03:57:30.832Z,98432.00
2023-03-31T03:58:02.384Z,98434.75
2023-03-31T03:58:36.559Z,98433.13
2023-03-31T03:59:07.958Z,98435.38
2023-03-31T03:59:39.415Z,98429.94
2023-03-31T04:00:13.978Z,98429.13
2023-03-31T04:00:45.450Z,98424.16
2023-03-31T04:01:16.932Z,98424.16
2023-03-31T04:01:48.415Z,98423.38
2023-03-31T04:02:19.956Z,98417.91
2023-03-31T04:02:51.646Z,98425.75
2023-03-31T04:03:23.190Z,98422.56
2023-03-31T04:03:54.674Z,98420.31
2023-03-31T04:04:26.176Z,98428.50
2023-03-31T04:04:57.680Z,98423.84
2023-03-31T04:05:31.927Z,98425.09
2023-03-31T04:06:03.580Z,98426.25
2023-03-31T04:06:35.284Z,98431.69
2023-03-31T04:07:06.758Z,98417.25
2023-03-31T04:07:38.269Z,98428.16
2023-03-31T04:08:09.696Z,98413.25
2023-03-31T04:08:41.481Z,98409.06
2023-03-31T04:09:12.925Z,98421.59
2023-03-31T04:09:44.378Z,98425.91
2023-03-31T04:10:15.826Z,98425.75
2023-03-31T04:10:47.348Z,98429.63
2023-03-31T04:11:19.367Z,98428.50
2023-03-31T04:11:50.993Z,98427.38
2023-03-31T04:12:22.457Z,98419.19
2023-03-31T04:12:53.862Z,98421.59
2023-03-31T04:13:25.298Z,98430.56
2023-03-31T04:13:56.730Z,98424.31
2023-03-31T04:14:28.190Z,98419.66
2023-03-31T04:14:59.696Z,98411.16
2023-03-31T04:15:33.843Z,98416.94
2023-03-31T04:16:05.438Z,98407.94
2023-03-31T04:16:37.168Z,98405.22
2023-03-31T04:17:08.753Z,98407.63
2023-03-31T04:17:40.224Z,98398.97
2023-03-31T04:18:13.306Z,98388.06
2023-03-31T04:18:46.093Z,98385.34
2023-03-31T04:19:17.620Z,98382.94
2023-03-31T04:19:49.194Z,98379.41
2023-03-31T04:20:20.627Z,98376.38
2023-03-31T04:20:52.027Z,98385.34
2023-03-31T04:21:23.461Z,98378.75
2023-03-31T04:21:54.844Z,98382.81
2023-03-31T04:22:26.371Z,98387.13
2023-03-31T04:22:57.824Z,98393.38
2023-03-31T04:23:29.272Z,98386.81
2023-03-31T04:24:00.715Z,98390.81
2023-03-31T04:24:32.136Z,98391.44
2023-03-31T04:25:03.586Z,98387.44
2023-03-31T04:25:35.038Z,98384.88
2023-03-31T04:26:06.647Z,98387.13
2023-03-31T04:26:38.210Z,98380.53
2023-03-31T04:27:09.731Z,98381.34
2023-03-31T04:27:41.213Z,98377.50
2023-03-31T04:28:12.622Z,98377.16
2023-03-31T04:28:44.088Z,98373.63
2023-03-31T04:29:15.487Z,98377.97
2023-03-31T04:29:46.973Z,98375.56
2023-03-31T04:30:18.499Z,98388.06
2023-03-31T04:30:49.954Z,98377.16
2023-03-31T04:31:21.576Z,98381.50
2023-03-31T04:31:53.058Z,98373.63
2023-03-31T04:32:24.701Z,98380.69
2023-03-31T04:32:59.453Z,98376.84
2023-03-31T04:33:30.898Z,98377.50
2023-03-31T04:34:02.409Z,98377.50
2023-03-31T04:34:34.193Z,98373.16
2023-03-31T04:35:05.683Z,98372.38
2023-03-31T04:35:37.137Z,98368.50
2023-03-31T04:36:08.934Z,98372.03
2023-03-31T04:36:40.678Z,98372.84
2023-03-31T04:37:12.130Z,98372.84
2023-03-31T04:37:43.581Z,98372.84
2023-03-31T04:38:15.006Z,98370.78
2023-03-31T04:38:46.413Z,98367.72
2023-03-31T04:39:17.876Z,98361.47
2023-03-31T04:39:49.299Z,98364.66
2023-03-31T04:40:20.844Z,98360.34
2023-03-31T04:40:52.313Z,98361.94
2023-03-31T04:41:23.749Z,98364.66
2023-03-31T04:41:55.168Z,98357.28
2023-03-31T04:42:26.562Z,98351.03
2023-03-31T04:42:58.121Z,98360.47
2023-03-31T04:43:29.548Z,98355.03
2023-03-31T04:44:01.075Z,98351.19
2023-03-31T04:44:32.498Z,98352.31
2023-03-31T04:45:04.397Z,98347.50
2023-03-31T04:45:35.992Z,98350.25
2023-03-31T04:46:07.689Z,98351.84
2023-03-31T04:46:39.318Z,98351.97
2023-03-31T04:47:10.722Z,98355.81
2023-03-31T04:47:42.202Z,98351.50
2023-03-31T04:48:13.760Z,98351.03
2023-03-31T04:48:45.272Z,98354.22
2023-03-31T04:49:16.667Z,98352.31
2023-03-31T04:49:48.030Z,98350.72
2023-03-31T04:50:19.536Z,98343.31
2023-03-31T04:50:50.967Z,98337.06
2023-03-31T04:51:22.444Z,98338.69
2023-03-31T04:51:53.927Z,98340.94
2023-03-31T04:52:27.006Z,98342.19
2023-03-31T04:52:58.464Z,98335.16
2023-03-31T04:53:29.918Z,98346.72
2023-03-31T04:54:01.344Z,98347.19
2023-03-31T04:54:32.798Z,98341.72
2023-03-31T04:55:04.244Z,98346.84
2023-03-31T04:55:35.667Z,98346.06
2023-03-31T04:56:07.220Z,98343.31
2023-03-31T04:56:38.761Z,98347.97
2023-03-31T04:57:10.200Z,98346.06
2023-03-31T04:57:41.664Z,98351.84
2023-03-31T04:58:13.098Z,98350.25
2023-03-31T04:58:44.592Z,98345.25
2023-03-31T04:59:16.048Z,98354.22
2023-03-31T04:59:47.425Z,98348.78
2023-03-31T05:00:18.921Z,98345.59
2023-03-31T05:00:50.326Z,98341.25
2023-03-31T05:01:21.791Z,98347.19
2023-03-31T05:01:53.232Z,98346.38
2023-03-31T05:02:25.603Z,98338.19
2023-03-31T05:02:57.357Z,98342.84
2023-03-31T05:03:29.062Z,98342.06
2023-03-31T05:04:00.633Z,98334.69
2023-03-31T05:04:32.114Z,98336.28
2023-03-31T05:05:03.515Z,98337.88
2023-03-31T05:05:35.158Z,98346.53
2023-03-31T05:06:06.708Z,98339.94
2023-03-31T05:06:38.305Z,98335.94
2023-03-31T05:07:09.709Z,98329.69
2023-03-31T05:07:41.215Z,98328.56
2023-03-31T05:08:12.703Z,98334.03
2023-03-31T05:08:44.149Z,98326.97
2023-03-31T05:09:15.628Z,98328.09
2023-03-31T05:09:47.066Z,98322.19
2023-03-31T05:10:18.481Z,98330.03
2023-03-31T05:10:49.913Z,98325.38
2023-03-31T05:11:21.547Z,98331.63
2023-03-31T05:11:52.978Z,98324.25
2023-03-31T05:12:24.382Z,98319.59
2023-03-31T05:12:55.985Z,98325.22
2023-03-31T05:13:27.436Z,98330.34
2023-03-31T05:13:58.889Z,98319.44
2023-03-31T05:14:30.310Z,98324.91
2023-03-31T05:15:04.146Z,98321.03
2023-03-31T05:15:37.686Z,98321.03
2023-03-31T05:16:09.325Z,98328.09
2023-03-31T05:16:41.074Z,98313.66
2023-03-31T05:17:12.563Z,98319.78
2023-03-31T05:17:44.023Z,98313.66
2023-03-31T05:18:15.479Z,98319.13
2023-03-31T05:18:47.000Z,98320.25
2023-03-31T05:19:18.465Z,98314.00
2023-03-31T05:19:52.921Z,98308.88
2023-03-31T05:20:24.323Z,98315.13
2023-03-31T05:20:58.501Z,98302.63
2023-03-31T05:21:30.004Z,98301.81
2023-03-31T05:22:01.435Z,98301.03
2023-03-31T05:22:32.947Z,98298.78
2023-03-31T05:23:04.357Z,98307.28
2023-03-31T05:23:38.435Z,98297.97
2023-03-31T05:24:09.936Z,98285.81
2023-03-31T05:24:41.317Z,98282.75
2023-03-31T05:25:12.742Z,98286.28
2023-03-31T05:25:44.230Z,98282.41
2023-03-31T05:26:15.636Z,98286.28
2023-03-31T05:26:47.151Z,98275.69
2023-03-31T05:27:18.559Z,98278.44
2023-03-31T05:27:50.029Z,98276.50
2023-03-31T05:28:21.618Z,98272.19
2023-03-31T05:28:53.074Z,98279.22
2023-03-31T05:29:24.551Z,98277.28
2023-03-31T05:29:55.964Z,98279.22
2023-03-31T05:30:27.471Z,98271.84
2023-03-31T05:30:58.925Z,98276.97
2023-03-31T05:31:30.436Z,98276.97
2023-03-31T05:32:02.009Z,98266.06
2023-03-31T05:32:33.590Z,98274.25
2023-03-31T05:33:05.188Z,98269.91
2023-03-31T05:33:36.668Z,98271.84
2023-03-31T05:34:08.109Z,98267.53
2023-03-31T05:34:39.622Z,98268.31
2023-03-31T05:35:11.038Z,98260.16
2023-03-31T05:35:44.204Z,98254.34
2023-03-31T05:36:15.761Z,98261.28
2023-03-31T05:36:47.247Z,98256.63
2023-03-31T05:37:18.700Z,98242.66
2023-03-31T05:37:50.150Z,98257.41
2023-03-31T05:38:21.679Z,98246.50
2023-03-31T05:38:53.122Z,98242.19
2023-03-31T05:39:24.556Z,98248.78
2023-03-31T05:39:55.958Z,98246.50
2023-03-31T05:40:27.388Z,98237.69
2023-03-31T05:41:01.546Z,98231.44
2023-03-31T05:41:33.031Z,98237.22
2023-03-31T05:42:04.441Z,98234.16
2023-03-31T05:42:35.874Z,98222.44
2023-03-31T05:43:07.376Z,98236.53
2023-03-31T05:43:38.839Z,98227.09
2023-03-31T05:44:10.311Z,98224.38
2023-03-31T05:44:41.748Z,98227.91
2023-03-31T05:45:13.193Z,98224.03
2023-03-31T05:45:44.690Z,98227.56
2023-03-31T05:46:16.257Z,98221.31
2023-03-31T05:46:47.771Z,98218.94
2023-03-31T05:47:19.248Z,98212.69
2023-03-31T05:47:50.760Z,98209.94
2023-03-31T05:48:22.349Z,98210.41
2023-03-31T05:48:53.899Z,98215.72
2023-03-31T05:49:25.375Z,98218.13
2023-03-31T05:49:56.775Z,98215.41
2023-03-31T05:50:28.220Z,98208.81
2023-03-31T05:50:59.699Z,98202.25
2023-03-31T05:51:31.132Z,98212.22
2023-03-31T05:52:02.526Z,98213.81
2023-03-31T05:52:34.044Z,98208.34
2023-03-31T05:53:05.538Z,98207.22
2023-03-31T05:53:36.949Z,98205.97
2023-03-31T05:54:08.433Z,98206.75
2023-03-31T05:54:39.935Z,98205.97
2023-03-31T05:55:14.283Z,98200.50
2023-03-31T05:55:45.811Z,98206.75
2023-03-31T05:56:17.258Z,98204.38
2023-03-31T05:56:48.766Z,98199.72
2023-03-31T05:57:20.212Z,98194.25
2023-03-31T05:57:51.838Z,98197.00
2023-03-31T05:58:23.287Z,98193.94
2023-03-31T05:58:54.655Z,98192.78
2023-03-31T05:59:26.153Z,98203.69
2023-03-31T05:59:57.583Z,98194.72
2023-03-31T06:00:29.106Z,98199.84
2023-03-31T06:01:00.572Z,98198.72
2023-03-31T06:01:32.094Z,98189.75
2023-03-31T06:02:03.582Z,98190.88
2023-03-31T06:02:35.206Z,98190.88
2023-03-31T06:03:06.840Z,98193.59
2023-03-31T06:03:38.526Z,98192.00
2023-03-31T06:04:10.062Z,98192.78
2023-03-31T06:04:41.611Z,98185.41
2023-03-31T06:05:13.087Z,98187.34
2023-03-31T06:05:44.500Z,98196.66
2023-03-31T06:06:15.907Z,98185.09
2023-03-31T06:06:47.348Z,98174.97
2023-03-31T06:07:18.799Z,98186.69
2023-03-31T06:07:50.346Z,98172.59
2023-03-31T06:08:21.816Z,98176.91
2023-03-31T06:08:53.373Z,98183.50
2023-03-31T06:09:24.886Z,98184.28
2023-03-31T06:09:56.306Z,98174.19
2023-03-31T06:10:27.769Z,98164.09
2023-03-31T06:10:59.217Z,98172.91
2023-03-31T06:11:30.686Z,98173.38